Aviation Digital Data Service (ADDS)

Output produced by METARs form (0741 UTC 24 May 2018)
found at http://www.aviationweather.gov/adds/metars/
 
KOAJ 240647Z 2407/2506 VRB03KT P6SM SCT007 BKN020 
     TEMPO 2407/2411 5SM BR BKN007 
     FM241400 07007KT P6SM SCT020 BKN060 
     FM241800 08006KT P6SM BKN040 
     FM242300 14005KT P6SM SCT250 AMD LTD TO CLD VIS AND WIND
       
KOAK 240522Z 2406/2512 26009KT P6SM OVC014 
     FM241730 25010KT P6SM SCT018 SCT070 BKN180 
     FM242100 26014G19KT P6SM SCT030 SCT050 BKN100 
     FM250300 26012KT P6SM VCSH SCT030 BKN100 
     FM250700 26010KT P6SM VCSH BKN040 OVC100
       
TAF KOFF 240200Z 2402/2508 16009KT 9999 FEW080 QNH2997INS 
     BECMG 2414/2415 16015G20KT 9999 BKN050 QNH2993INS 
     BECMG 2500/2501 18009KT 9999 SCT060 QNH2992INS 
     BECMG 2505/2506 32025G35KT 6000 -TSRA BKN020 OVC040CB QNH2989INS TX33/2421Z TN19/2411Z
       
KOFK 240520Z 2406/2506 16010KT P6SM BKN250 
     FM241600 18013G21KT P6SM BKN150 
     PROB30 2422/2424 4SM -TSRA BKN040CB 
     FM250000 18012KT P6SM SCT250 
     PROB30 2500/2503 3SM TSRA BKN040CB 
     FM250300 17009KT P6SM SCT250 
     PROB30 2503/2506 4SM TSRA BKN080CB BKN250
       
KOGB 240528Z 2406/2506 VRB05KT P6SM SCT150 
     FM240900 VRB03KT 1 1/2SM BR OVC004 
     FM241400 10005KT P6SM BKN015 
     FM241800 13006KT P6SM VCSH BKN035 
     TEMPO 2419/2423 SHRA
       
KOGD 240544Z 2406/2506 17008KT P6SM BKN120 
     FM241900 25006KT P6SM SCT080 
     FM250300 15007KT P6SM SKC
       
KOKC 240520Z 2406/2506 14006KT P6SM SCT250 
     TEMPO 2411/2414 6SM BR 
     FM241400 18008KT P6SM BKN040
       
KOLF 240520Z 2406/2506 00000KT P6SM VCSH BKN050 
     FM240900 VRB03KT P6SM SCT035 
     FM241000 VRB03KT P6SM BKN030 
     FM241200 VRB04KT P6SM VCSH BKN010 
     FM241500 26006KT P6SM SCT018
       
KOLM 240521Z 2406/2506 19009KT P6SM SCT100 
     FM240900 22006KT P6SM OVC012 
     FM241900 22006KT P6SM BKN025 
     FM242100 26006KT P6SM SCT040
       
KOLS 240520Z 2406/2506 VRB04KT P6SM SKC 
     FM241700 19008KT P6SM SKC 
     FM242000 22010G17KT P6SM SKC 
     FM250200 21007KT P6SM SKC
       
KOMA 240520Z 2406/2506 16007KT P6SM BKN250 
     FM241600 17012G21KT P6SM SCT150 
     FM250000 16012KT P6SM OVC150 
     PROB30 2500/2506 3SM TSRA OVC040CB
       
KONP 240520Z 2406/2506 30003KT 5SM BR SCT008 BKN015 OVC025 
     FM241000 30003KT 2SM -DZ BR BKN008 OVC015 
     FM241400 VRB03KT 3SM BR SCT008 BKN015 OVC025 
     FM241600 VRB03KT 4SM BR SCT015 OVC025 
     FM241800 29004KT P6SM SCT015 BKN025 
     FM242000 33008KT P6SM SCT025
       
KONT 240658Z 2407/2512 24006KT P6SM OVC015 
     FM241900 25010KT P6SM SCT025 
     FM250400 VRB04KT P6SM FEW020 
     FM250800 VRB04KT P6SM OVC015
       
KOPF 240540Z 2406/2506 10007KT P6SM FEW020 SCT120 
     FM241200 11006KT P6SM VCSH SCT025 BKN050 BKN150 
     FM241600 12010KT P6SM VCTS SCT025CB BKN050 BKN100 
     FM241900 11009KT P6SM VCSH SCT025 BKN050 
     FM250200 12007KT P6SM SCT050 BKN100
       
KORD 240520Z 2406/2512 11004KT P6SM FEW250 
     FM241300 17008KT P6SM FEW070 FEW150 
     FM242200 13007KT P6SM FEW250 
     FM250700 20006KT P6SM FEW250
       
KORF 240540Z 2406/2506 35004KT P6SM SKC 
     FM241300 04011KT P6SM SKC 
     FM242300 09006KT P6SM SKC
       
KORH 240533Z 2406/2506 33005KT P6SM SKC 
     FM241500 35010G20KT P6SM SKC 
     FM242000 31009KT P6SM SKC 
     FM242200 27006KT P6SM SKC 
     FM242300 23005KT P6SM FEW250
       
KOTH 240530Z 2406/2506 VRB03KT P6SM OVC030 
     FM241200 30004KT P6SM OVC015 
     FM242200 33010G18KT P6SM FEW025 
     FM250300 34010G19KT P6SM OVC025
       
KOTM 240520Z 2406/2506 14006KT P6SM SKC 
     FM241900 17010KT P6SM SCT050 SCT250 
     FM250200 17006KT P6SM SCT150
       
KOUN 240520Z 2406/2506 14005KT P6SM SCT250 
     FM241400 19008KT P6SM BKN030 
     FM241600 17008KT P6SM BKN040
       
KOWB 240520Z 2406/2506 VRB03KT P6SM SKC 
     FM241500 08006KT P6SM SKC 
     FM241900 08007KT P6SM FEW060 
     FM250100 VRB03KT P6SM SCT250
       
KOXR 240523Z 2406/2506 26006KT P6SM OVC025 
     FM241600 26006KT P6SM OVC035 
     FM242000 27015KT P6SM BKN035 
     FM250300 27007KT P6SM OVC025
       
TAF AMD KOZR 240633Z 2406/2506 VRB06KT 9999 SCT020 BKN200 QNH3000INS 
     BECMG 2408/2409 VRB06KT 4800 BR BKN008 OVC020 QNH3003INS 
     TEMPO 2409/2413 2400 BR OVC005 
     BECMG 2414/2415 24006KT 9999 NSW BKN025 BKN040 QNH3000INS 
     TEMPO 2418/2423 20015G25KT 4800 -TSRA BKN030CB 
     BECMG 2503/2504 17006KT 9999 BKN015 OVC030 QNH3001INS TX29/2419Z TN21/2410Z